sensor_id;sensor_type;location;lat;lon;timestamp;temperature;humidity
18083;DHT22;9168;51.194;6.840;2023-04-24T00:00:13;11.50;99.90
18083;DHT22;9168;51.194;6.840;2023-04-24T00:02:41;11.40;99.90
18083;DHT22;9168;51.194;6.840;2023-04-24T00:05:10;11.40;99.90
18083;DHT22;9168;51.194;6.840;2023-04-24T00:07:38;11.40;99.90
18083;DHT22;9168;51.194;6.840;2023-04-24T00:10:06;11.40;99.90
18083;DHT22;9168;51.194;6.840;2023-04-24T00:12:33;11.30;99.90
18083;DHT22;9168;51.194;6.840;2023-04-24T00:15:00;11.30;99.90
18083;DHT22;9168;51.194;6.840;2023-04-24T00:17:27;11.30;99.90
18083;DHT22;9168;51.194;6.840;2023-04-24T00:19:54;11.30;99.90
18083;DHT22;9168;51.194;6.840;2023-04-24T00:22:24;11.30;99.90
18083;DHT22;9168;51.194;6.840;2023-04-24T00:24:52;11.30;99.90
18083;DHT22;9168;51.194;6.840;2023-04-24T00:27:19;11.30;99.90
18083;DHT22;9168;51.194;6.840;2023-04-24T00:29:46;11.30;99.90
18083;DHT22;9168;51.194;6.840;2023-04-24T00:32:13;11.30;99.90
18083;DHT22;9168;51.194;6.840;2023-04-24T00:34:40;11.30;99.90
18083;DHT22;9168;51.194;6.840;2023-04-24T00:37:07;11.30;99.90
18083;DHT22;9168;51.194;6.840;2023-04-24T00:39:34;11.20;99.90
18083;DHT22;9168;51.194;6.840;2023-04-24T00:42:02;11.30;99.90
18083;DHT22;9168;51.194;6.840;2023-04-24T00:44:32;11.30;99.90
18083;DHT22;9168;51.194;6.840;2023-04-24T00:46:59;11.30;99.90
18083;DHT22;9168;51.194;6.840;2023-04-24T00:49:27;11.30;99.90
18083;DHT22;9168;51.194;6.840;2023-04-24T00:51:54;11.30;99.90
18083;DHT22;9168;51.194;6.840;2023-04-24T00:54:22;11.30;99.90
18083;DHT22;9168;51.194;6.840;2023-04-24T00:56:49;11.30;99.90
18083;DHT22;9168;51.194;6.840;2023-04-24T00:59:18;11.30;99.90
18083;DHT22;9168;51.194;6.840;2023-04-24T01:01:45;11.40;99.90
18083;DHT22;9168;51.194;6.840;2023-04-24T01:04:12;11.40;99.90
18083;DHT22;9168;51.194;6.840;2023-04-24T01:06:40;11.40;99.90
18083;DHT22;9168;51.194;6.840;2023-04-24T01:09:10;11.30;99.90
18083;DHT22;9168;51.194;6.840;2023-04-24T01:11:38;11.30;99.90
18083;DHT22;9168;51.194;6.840;2023-04-24T01:14:07;11.30;99.90
18083;DHT22;9168;51.194;6.840;2023-04-24T01:16:35;11.30;99.90
18083;DHT22;9168;51.194;6.840;2023-04-24T01:19:04;11.30;99.90
18083;DHT22;9168;51.194;6.840;2023-04-24T01:21:34;11.20;99.90
18083;DHT22;9168;51.194;6.840;2023-04-24T01:24:04;11.20;99.90
18083;DHT22;9168;51.194;6.840;2023-04-24T01:26:32;11.10;99.90
18083;DHT22;9168;51.194;6.840;2023-04-24T01:28:59;10.90;99.90
18083;DHT22;9168;51.194;6.840;2023-04-24T01:31:26;10.80;99.90
18083;DHT22;9168;51.194;6.840;2023-04-24T01:33:54;10.70;99.90
18083;DHT22;9168;51.194;6.840;2023-04-24T01:36:21;10.70;99.90
18083;DHT22;9168;51.194;6.840;2023-04-24T01:38:49;10.60;99.90
18083;DHT22;9168;51.194;6.840;2023-04-24T01:41:17;10.50;99.90
18083;DHT22;9168;51.194;6.840;2023-04-24T01:43:44;10.40;99.90
18083;DHT22;9168;51.194;6.840;2023-04-24T01:46:11;10.40;99.90
18083;DHT22;9168;51.194;6.840;2023-04-24T01:48:38;10.30;99.90
18083;DHT22;9168;51.194;6.840;2023-04-24T01:51:05;10.30;99.90
18083;DHT22;9168;51.194;6.840;2023-04-24T01:53:32;10.20;99.90
18083;DHT22;9168;51.194;6.840;2023-04-24T01:55:58;10.20;99.90
18083;DHT22;9168;51.194;6.840;2023-04-24T01:58:27;10.20;99.90
18083;DHT22;9168;51.194;6.840;2023-04-24T02:00:56;10.20;99.90
18083;DHT22;9168;51.194;6.840;2023-04-24T02:03:25;10.20;99.90
18083;DHT22;9168;51.194;6.840;2023-04-24T02:05:52;10.20;99.90
18083;DHT22;9168;51.194;6.840;2023-04-24T02:08:18;10.20;99.90
18083;DHT22;9168;51.194;6.840;2023-04-24T02:10:45;10.20;99.90
18083;DHT22;9168;51.194;6.840;2023-04-24T02:13:12;10.10;99.90
18083;DHT22;9168;51.194;6.840;2023-04-24T02:15:40;10.10;99.90
18083;DHT22;9168;51.194;6.840;2023-04-24T02:18:07;10.20;99.90
18083;DHT22;9168;51.194;6.840;2023-04-24T02:20:34;10.20;99.90
18083;DHT22;9168;51.194;6.840;2023-04-24T02:23:01;10.20;99.90
18083;DHT22;9168;51.194;6.840;2023-04-24T02:25:28;10.20;99.90
18083;DHT22;9168;51.194;6.840;2023-04-24T02:27:55;10.20;99.90
18083;DHT22;9168;51.194;6.840;2023-04-24T02:30:21;10.20;99.90
18083;DHT22;9168;51.194;6.840;2023-04-24T02:32:50;10.20;99.90
18083;DHT22;9168;51.194;6.840;2023-04-24T02:35:17;10.10;99.90
18083;DHT22;9168;51.194;6.840;2023-04-24T02:37:44;10.20;99.90
18083;DHT22;9168;51.194;6.840;2023-04-24T02:40:11;10.20;99.90
18083;DHT22;9168;51.194;6.840;2023-04-24T02:42:38;10.20;99.90
18083;DHT22;9168;51.194;6.840;2023-04-24T02:45:05;10.30;99.90
18083;DHT22;9168;51.194;6.840;2023-04-24T02:47:32;10.30;99.90
18083;DHT22;9168;51.194;6.840;2023-04-24T02:50:01;10.30;99.90
18083;DHT22;9168;51.194;6.840;2023-04-24T02:52:28;10.30;99.90
18083;DHT22;9168;51.194;6.840;2023-04-24T02:54:55;10.30;99.90
18083;DHT22;9168;51.194;6.840;2023-04-24T02:57:22;10.30;99.90
18083;DHT22;9168;51.194;6.840;2023-04-24T02:59:49;10.30;99.90
18083;DHT22;9168;51.194;6.840;2023-04-24T03:02:15;10.30;99.90
18083;DHT22;9168;51.194;6.840;2023-04-24T03:04:42;10.30;99.90
18083;DHT22;9168;51.194;6.840;2023-04-24T03:07:10;10.40;99.90
18083;DHT22;9168;51.194;6.840;2023-04-24T03:09:37;10.40;99.90
18083;DHT22;9168;51.194;6.840;2023-04-24T03:12:04;10.40;99.90
18083;DHT22;9168;51.194;6.840;2023-04-24T03:14:31;10.40;99.90
18083;DHT22;9168;51.194;6.840;2023-04-24T03:16:58;10.40;99.90
18083;DHT22;9168;51.194;6.840;2023-04-24T03:19:25;10.40;99.90
18083;DHT22;9168;51.194;6.840;2023-04-24T03:21:52;10.40;99.90
18083;DHT22;9168;51.194;6.840;2023-04-24T03:24:20;10.40;99.90
18083;DHT22;9168;51.194;6.840;2023-04-24T03:26:48;10.40;99.90
18083;DHT22;9168;51.194;6.840;2023-04-24T03:29:14;10.40;99.90
18083;DHT22;9168;51.194;6.840;2023-04-24T03:31:41;10.40;99.90
18083;DHT22;9168;51.194;6.840;2023-04-24T03:34:08;10.40;99.90
18083;DHT22;9168;51.194;6.840;2023-04-24T03:36:35;10.40;99.90
18083;DHT22;9168;51.194;6.840;2023-04-24T03:39:02;10.40;99.90
18083;DHT22;9168;51.194;6.840;2023-04-24T03:41:31;10.40;99.90
18083;DHT22;9168;51.194;6.840;2023-04-24T03:43:57;10.40;99.90
18083;DHT22;9168;51.194;6.840;2023-04-24T03:46:24;10.40;99.90
18083;DHT22;9168;51.194;6.840;2023-04-24T03:48:51;10.40;99.90
18083;DHT22;9168;51.194;6.840;2023-04-24T03:51:18;10.50;99.90
18083;DHT22;9168;51.194;6.840;2023-04-24T03:53:45;10.40;99.90
18083;DHT22;9168;51.194;6.840;2023-04-24T03:56:12;10.50;99.90
18083;DHT22;9168;51.194;6.840;2023-04-24T03:58:40;10.40;99.90
18083;DHT22;9168;51.194;6.840;2023-04-24T04:01:07;10.40;99.90
18083;DHT22;9168;51.194;6.840;2023-04-24T04:03:34;10.40;99.90
18083;DHT22;9168;51.194;6.840;2023-04-24T04:06:01;10.40;99.90
18083;DHT22;9168;51.194;6.840;2023-04-24T04:08:28;10.40;99.90
18083;DHT22;9168;51.194;6.840;2023-04-24T04:10:54;10.30;99.90
18083;DHT22;9168;51.194;6.840;2023-04-24T04:13:21;10.30;99.90
18083;DHT22;9168;51.194;6.840;2023-04-24T04:15:49;10.30;99.90
18083;DHT22;9168;51.194;6.840;2023-04-24T04:18:16;10.40;99.90
18083;DHT22;9168;51.194;6.840;2023-04-24T04:20:43;10.30;99.90
18083;DHT22;9168;51.194;6.840;2023-04-24T04:23:10;10.30;99.90
18083;DHT22;9168;51.194;6.840;2023-04-24T04:25:37;10.30;99.90
18083;DHT22;9168;51.194;6.840;2023-04-24T04:28:04;10.30;99.90
18083;DHT22;9168;51.194;6.840;2023-04-24T04:30:31;10.40;99.90
18083;DHT22;9168;51.194;6.840;2023-04-24T04:32:59;10.30;99.90
18083;DHT22;9168;51.194;6.840;2023-04-24T04:35:26;10.30;99.90
18083;DHT22;9168;51.194;6.840;2023-04-24T04:37:53;10.30;99.90
18083;DHT22;9168;51.194;6.840;2023-04-24T04:40:21;10.30;99.90
18083;DHT22;9168;51.194;6.840;2023-04-24T04:42:48;10.30;99.90
18083;DHT22;9168;51.194;6.840;2023-04-24T04:45:18;10.30;99.90
18083;DHT22;9168;51.194;6.840;2023-04-24T04:47:46;10.30;99.90
18083;DHT22;9168;51.194;6.840;2023-04-24T04:50:14;10.30;99.90
18083;DHT22;9168;51.194;6.840;2023-04-24T04:52:42;10.30;99.90
18083;DHT22;9168;51.194;6.840;2023-04-24T04:55:09;10.30;99.90
18083;DHT22;9168;51.194;6.840;2023-04-24T04:57:36;10.30;99.90
18083;DHT22;9168;51.194;6.840;2023-04-24T05:00:04;10.20;99.90
18083;DHT22;9168;51.194;6.840;2023-04-24T05:02:32;10.20;99.90
18083;DHT22;9168;51.194;6.840;2023-04-24T05:04:59;10.20;99.90
18083;DHT22;9168;51.194;6.840;2023-04-24T05:07:27;10.10;99.90
18083;DHT22;9168;51.194;6.840;2023-04-24T05:09:54;10.10;99.90
18083;DHT22;9168;51.194;6.840;2023-04-24T05:12:21;10.10;99.90
18083;DHT22;9168;51.194;6.840;2023-04-24T05:14:48;10.10;99.90
18083;DHT22;9168;51.194;6.840;2023-04-24T05:17:15;10.10;99.90
18083;DHT22;9168;51.194;6.840;2023-04-24T05:19:42;10.10;99.90
18083;DHT22;9168;51.194;6.840;2023-04-24T05:22:09;10.20;99.90
18083;DHT22;9168;51.194;6.840;2023-04-24T05:24:38;10.20;99.90
18083;DHT22;9168;51.194;6.840;2023-04-24T05:27:05;10.20;99.90
18083;DHT22;9168;51.194;6.840;2023-04-24T05:29:32;10.20;99.90
18083;DHT22;9168;51.194;6.840;2023-04-24T05:31:59;10.10;99.90
18083;DHT22;9168;51.194;6.840;2023-04-24T05:34:26;10.10;99.90
18083;DHT22;9168;51.194;6.840;2023-04-24T05:36:53;10.10;99.90
18083;DHT22;9168;51.194;6.840;2023-04-24T05:39:20;10.00;99.90
18083;DHT22;9168;51.194;6.840;2023-04-24T05:41:48;10.00;99.90
18083;DHT22;9168;51.194;6.840;2023-04-24T05:44:15;9.80;99.90
18083;DHT22;9168;51.194;6.840;2023-04-24T05:46:42;9.80;99.90
18083;DHT22;9168;51.194;6.840;2023-04-24T05:49:09;9.70;99.90
18083;DHT22;9168;51.194;6.840;2023-04-24T05:51:36;9.70;99.90
18083;DHT22;9168;51.194;6.840;2023-04-24T05:54:04;9.70;99.90
18083;DHT22;9168;51.194;6.840;2023-04-24T05:56:31;9.60;99.90
18083;DHT22;9168;51.194;6.840;2023-04-24T05:59:00;9.60;99.90
18083;DHT22;9168;51.194;6.840;2023-04-24T06:01:26;9.50;99.90
18083;DHT22;9168;51.194;6.840;2023-04-24T06:03:53;9.50;99.90
18083;DHT22;9168;51.194;6.840;2023-04-24T06:06:20;9.60;99.90
18083;DHT22;9168;51.194;6.840;2023-04-24T06:08:47;9.50;99.90
18083;DHT22;9168;51.194;6.840;2023-04-24T06:11:14;9.60;99.90
18083;DHT22;9168;51.194;6.840;2023-04-24T06:13:41;9.50;99.90
18083;DHT22;9168;51.194;6.840;2023-04-24T06:16:09;9.50;99.90
18083;DHT22;9168;51.194;6.840;2023-04-24T06:18:36;9.60;99.90
18083;DHT22;9168;51.194;6.840;2023-04-24T06:21:04;9.60;99.90
18083;DHT22;9168;51.194;6.840;2023-04-24T06:23:30;9.60;99.90
18083;DHT22;9168;51.194;6.840;2023-04-24T06:25:58;9.60;99.90
18083;DHT22;9168;51.194;6.840;2023-04-24T06:28:25;9.60;99.90
18083;DHT22;9168;51.194;6.840;2023-04-24T06:30:52;9.60;99.90
18083;DHT22;9168;51.194;6.840;2023-04-24T06:33:20;9.60;99.90
18083;DHT22;9168;51.194;6.840;2023-04-24T06:35:47;9.60;99.90
18083;DHT22;9168;51.194;6.840;2023-04-24T06:38:14;9.60;99.90
18083;DHT22;9168;51.194;6.840;2023-04-24T06:40:41;9.50;99.90
18083;DHT22;9168;51.194;6.840;2023-04-24T06:43:08;9.50;99.90
18083;DHT22;9168;51.194;6.840;2023-04-24T06:45:36;9.50;99.90
18083;DHT22;9168;51.194;6.840;2023-04-24T06:48:04;9.40;99.90
18083;DHT22;9168;51.194;6.840;2023-04-24T06:50:33;9.40;99.90
18083;DHT22;9168;51.194;6.840;2023-04-24T06:52:59;9.40;99.90
18083;DHT22;9168;51.194;6.840;2023-04-24T06:55:26;9.40;99.90
18083;DHT22;9168;51.194;6.840;2023-04-24T06:57:53;9.30;99.90
18083;DHT22;9168;51.194;6.840;2023-04-24T07:00:20;9.30;99.90
18083;DHT22;9168;51.194;6.840;2023-04-24T07:02:49;9.20;99.90
18083;DHT22;9168;51.194;6.840;2023-04-24T07:05:16;9.20;99.90
18083;DHT22;9168;51.194;6.840;2023-04-24T07:07:47;9.20;99.90
18083;DHT22;9168;51.194;6.840;2023-04-24T07:10:15;9.20;99.90
18083;DHT22;9168;51.194;6.840;2023-04-24T07:12:42;9.20;99.90
18083;DHT22;9168;51.194;6.840;2023-04-24T07:15:09;9.20;99.90
18083;DHT22;9168;51.194;6.840;2023-04-24T07:17:37;9.20;99.90
18083;DHT22;9168;51.194;6.840;2023-04-24T07:20:09;9.20;99.90
18083;DHT22;9168;51.194;6.840;2023-04-24T07:22:37;9.20;99.90
18083;DHT22;9168;51.194;6.840;2023-04-24T07:25:06;9.10;99.90
18083;DHT22;9168;51.194;6.840;2023-04-24T07:27:34;9.20;99.90
18083;DHT22;9168;51.194;6.840;2023-04-24T07:30:02;9.20;99.90
18083;DHT22;9168;51.194;6.840;2023-04-24T07:32:29;9.30;99.90
18083;DHT22;9168;51.194;6.840;2023-04-24T07:34:56;9.30;99.90
18083;DHT22;9168;51.194;6.840;2023-04-24T07:37:23;9.30;99.90
18083;DHT22;9168;51.194;6.840;2023-04-24T07:39:50;9.30;99.90
18083;DHT22;9168;51.194;6.840;2023-04-24T07:42:18;9.20;99.90
18083;DHT22;9168;51.194;6.840;2023-04-24T07:44:45;9.20;99.90
18083;DHT22;9168;51.194;6.840;2023-04-24T07:47:13;9.10;99.90
18083;DHT22;9168;51.194;6.840;2023-04-24T07:49:41;8.90;99.90
18083;DHT22;9168;51.194;6.840;2023-04-24T07:52:08;8.70;99.90
18083;DHT22;9168;51.194;6.840;2023-04-24T07:54:35;8.60;99.90
18083;DHT22;9168;51.194;6.840;2023-04-24T07:57:03;8.50;99.90
18083;DHT22;9168;51.194;6.840;2023-04-24T07:59:33;8.40;99.90
18083;DHT22;9168;51.194;6.840;2023-04-24T08:02:00;8.30;99.90
18083;DHT22;9168;51.194;6.840;2023-04-24T08:04:27;8.30;99.90
18083;DHT22;9168;51.194;6.840;2023-04-24T08:06:54;8.30;99.90
18083;DHT22;9168;51.194;6.840;2023-04-24T08:09:21;8.30;99.90
18083;DHT22;9168;51.194;6.840;2023-04-24T08:11:48;8.30;99.90
18083;DHT22;9168;51.194;6.840;2023-04-24T08:14:15;8.20;99.90
18083;DHT22;9168;51.194;6.840;2023-04-24T08:16:43;8.30;99.90
18083;DHT22;9168;51.194;6.840;2023-04-24T08:19:10;8.30;99.90
18083;DHT22;9168;51.194;6.840;2023-04-24T08:21:37;8.40;99.90
18083;DHT22;9168;51.194;6.840;2023-04-24T08:24:04;8.30;99.90
18083;DHT22;9168;51.194;6.840;2023-04-24T08:26:33;8.30;99.90
18083;DHT22;9168;51.194;6.840;2023-04-24T08:29:00;8.40;99.90
18083;DHT22;9168;51.194;6.840;2023-04-24T08:31:27;8.40;99.90
18083;DHT22;9168;51.194;6.840;2023-04-24T08:33:55;8.40;99.90
18083;DHT22;9168;51.194;6.840;2023-04-24T08:36:22;8.40;99.90
18083;DHT22;9168;51.194;6.840;2023-04-24T08:38:49;8.50;99.90
18083;DHT22;9168;51.194;6.840;2023-04-24T08:41:17;8.60;99.90
18083;DHT22;9168;51.194;6.840;2023-04-24T08:43:46;8.70;99.90
18083;DHT22;9168;51.194;6.840;2023-04-24T08:46:13;8.70;99.90
18083;DHT22;9168;51.194;6.840;2023-04-24T08:48:42;8.80;99.90
18083;DHT22;9168;51.194;6.840;2023-04-24T08:51:11;8.80;99.90
18083;DHT22;9168;51.194;6.840;2023-04-24T08:53:39;8.90;99.90
18083;DHT22;9168;51.194;6.840;2023-04-24T08:56:06;8.90;99.90
18083;DHT22;9168;51.194;6.840;2023-04-24T08:58:33;9.00;99.90
18083;DHT22;9168;51.194;6.840;2023-04-24T09:01:02;9.00;99.90
18083;DHT22;9168;51.194;6.840;2023-04-24T09:03:30;9.00;99.90
18083;DHT22;9168;51.194;6.840;2023-04-24T09:05:58;9.00;99.90
18083;DHT22;9168;51.194;6.840;2023-04-24T09:08:28;9.10;99.90
18083;DHT22;9168;51.194;6.840;2023-04-24T09:10:56;9.10;99.90
18083;DHT22;9168;51.194;6.840;2023-04-24T09:13:24;9.10;99.90
18083;DHT22;9168;51.194;6.840;2023-04-24T09:15:51;9.00;99.90
18083;DHT22;9168;51.194;6.840;2023-04-24T09:18:19;8.90;99.90
18083;DHT22;9168;51.194;6.840;2023-04-24T09:21:00;9.00;99.90
18083;DHT22;9168;51.194;6.840;2023-04-24T09:23:30;9.00;99.90
18083;DHT22;9168;51.194;6.840;2023-04-24T09:25:59;8.90;99.90
18083;DHT22;9168;51.194;6.840;2023-04-24T09:31:04;9.00;99.90
18083;DHT22;9168;51.194;6.840;2023-04-24T09:33:32;9.10;99.90
18083;DHT22;9168;51.194;6.840;2023-04-24T09:35:59;9.10;99.90
18083;DHT22;9168;51.194;6.840;2023-04-24T09:38:34;9.10;99.90
18083;DHT22;9168;51.194;6.840;2023-04-24T09:41:02;9.20;99.90
18083;DHT22;9168;51.194;6.840;2023-04-24T09:43:29;9.20;99.90
18083;DHT22;9168;51.194;6.840;2023-04-24T09:45:57;9.20;99.90
18083;DHT22;9168;51.194;6.840;2023-04-24T09:48:32;9.30;99.90
18083;DHT22;9168;51.194;6.840;2023-04-24T09:51:01;9.30;99.90
18083;DHT22;9168;51.194;6.840;2023-04-24T09:53:29;9.40;99.90
18083;DHT22;9168;51.194;6.840;2023-04-24T09:56:02;9.40;99.90
18083;DHT22;9168;51.194;6.840;2023-04-24T09:58:29;9.40;99.90
18083;DHT22;9168;51.194;6.840;2023-04-24T10:00:56;9.40;99.90
18083;DHT22;9168;51.194;6.840;2023-04-24T10:03:25;9.40;99.90
18083;DHT22;9168;51.194;6.840;2023-04-24T10:05:54;9.40;99.90
18083;DHT22;9168;51.194;6.840;2023-04-24T10:08:25;9.50;99.90
18083;DHT22;9168;51.194;6.840;2023-04-24T10:10:52;9.40;99.90
18083;DHT22;9168;51.194;6.840;2023-04-24T10:13:21;9.50;99.90
18083;DHT22;9168;51.194;6.840;2023-04-24T10:15:48;9.60;99.90
18083;DHT22;9168;51.194;6.840;2023-04-24T10:18:15;9.60;99.90
18083;DHT22;9168;51.194;6.840;2023-04-24T10:20:42;9.60;99.90
18083;DHT22;9168;51.194;6.840;2023-04-24T10:23:09;9.60;99.90
18083;DHT22;9168;51.194;6.840;2023-04-24T10:25:37;9.60;99.90
18083;DHT22;9168;51.194;6.840;2023-04-24T10:28:04;9.80;99.90
18083;DHT22;9168;51.194;6.840;2023-04-24T10:30:34;9.80;99.90
18083;DHT22;9168;51.194;6.840;2023-04-24T10:33:02;9.90;99.90
18083;DHT22;9168;51.194;6.840;2023-04-24T10:35:31;9.90;99.90
18083;DHT22;9168;51.194;6.840;2023-04-24T10:38:02;10.00;99.90
18083;DHT22;9168;51.194;6.840;2023-04-24T10:40:31;10.00;99.90
18083;DHT22;9168;51.194;6.840;2023-04-24T10:42:59;10.00;99.90
18083;DHT22;9168;51.194;6.840;2023-04-24T10:45:26;10.00;99.90
18083;DHT22;9168;51.194;6.840;2023-04-24T10:48:02;10.00;99.90
18083;DHT22;9168;51.194;6.840;2023-04-24T10:50:43;10.00;99.90
18083;DHT22;9168;51.194;6.840;2023-04-24T10:53:13;10.10;99.90
18083;DHT22;9168;51.194;6.840;2023-04-24T10:55:46;10.00;99.90
18083;DHT22;9168;51.194;6.840;2023-04-24T10:58:14;10.10;99.90
18083;DHT22;9168;51.194;6.840;2023-04-24T11:00:43;10.10;99.90
18083;DHT22;9168;51.194;6.840;2023-04-24T11:03:25;10.30;99.90
18083;DHT22;9168;51.194;6.840;2023-04-24T11:05:55;10.40;99.90
18083;DHT22;9168;51.194;6.840;2023-04-24T11:08:26;10.50;99.90
18083;DHT22;9168;51.194;6.840;2023-04-24T11:11:02;10.50;99.90
18083;DHT22;9168;51.194;6.840;2023-04-24T11:16:33;10.60;99.90
18083;DHT22;9168;51.194;6.840;2023-04-24T11:19:04;10.60;99.90
18083;DHT22;9168;51.194;6.840;2023-04-24T11:21:32;10.50;99.90
18083;DHT22;9168;51.194;6.840;2023-04-24T11:27:12;10.40;99.90
18083;DHT22;9168;51.194;6.840;2023-04-24T11:29:45;10.50;99.90
18083;DHT22;9168;51.194;6.840;2023-04-24T11:32:34;10.50;99.90
18083;DHT22;9168;51.194;6.840;2023-04-24T11:35:04;10.50;99.90
18083;DHT22;9168;51.194;6.840;2023-04-24T11:37:37;10.50;99.90
18083;DHT22;9168;51.194;6.840;2023-04-24T11:40:06;10.50;99.90
18083;DHT22;9168;51.194;6.840;2023-04-24T11:42:34;10.60;99.90
18083;DHT22;9168;51.194;6.840;2023-04-24T11:45:01;10.70;99.90
18083;DHT22;9168;51.194;6.840;2023-04-24T11:47:29;10.80;99.90
18083;DHT22;9168;51.194;6.840;2023-04-24T11:49:58;11.00;99.90
18083;DHT22;9168;51.194;6.840;2023-04-24T11:52:27;11.30;99.90
18083;DHT22;9168;51.194;6.840;2023-04-24T11:54:54;11.40;99.90
18083;DHT22;9168;51.194;6.840;2023-04-24T11:57:22;11.50;99.90
18083;DHT22;9168;51.194;6.840;2023-04-24T11:59:52;11.40;99.90
18083;DHT22;9168;51.194;6.840;2023-04-24T12:02:22;11.20;99.90
18083;DHT22;9168;51.194;6.840;2023-04-24T12:04:50;11.20;99.90
18083;DHT22;9168;51.194;6.840;2023-04-24T12:07:17;11.10;99.90
18083;DHT22;9168;51.194;6.840;2023-04-24T12:09:46;11.00;99.90
18083;DHT22;9168;51.194;6.840;2023-04-24T12:12:14;11.00;99.90
18083;DHT22;9168;51.194;6.840;2023-04-24T12:14:43;11.00;99.90
18083;DHT22;9168;51.194;6.840;2023-04-24T12:17:10;11.20;99.90
18083;DHT22;9168;51.194;6.840;2023-04-24T12:19:37;11.60;99.90
18083;DHT22;9168;51.194;6.840;2023-04-24T12:22:05;11.70;99.90
18083;DHT22;9168;51.194;6.840;2023-04-24T12:24:32;11.80;99.90
18083;DHT22;9168;51.194;6.840;2023-04-24T12:27:01;12.00;99.90
18083;DHT22;9168;51.194;6.840;2023-04-24T12:29:28;12.00;99.90
18083;DHT22;9168;51.194;6.840;2023-04-24T12:31:54;12.10;99.90
18083;DHT22;9168;51.194;6.840;2023-04-24T12:34:23;12.10;99.90
18083;DHT22;9168;51.194;6.840;2023-04-24T12:36:50;11.90;99.90
18083;DHT22;9168;51.194;6.840;2023-04-24T12:39:18;11.80;99.90
18083;DHT22;9168;51.194;6.840;2023-04-24T12:41:55;11.80;99.90
18083;DHT22;9168;51.194;6.840;2023-04-24T12:44:34;12.00;99.90
18083;DHT22;9168;51.194;6.840;2023-04-24T12:47:02;12.00;99.90
18083;DHT22;9168;51.194;6.840;2023-04-24T12:49:30;12.10;99.90
18083;DHT22;9168;51.194;6.840;2023-04-24T12:51:57;12.10;99.90
18083;DHT22;9168;51.194;6.840;2023-04-24T12:54:24;12.30;99.90
18083;DHT22;9168;51.194;6.840;2023-04-24T12:56:51;12.80;99.90
18083;DHT22;9168;51.194;6.840;2023-04-24T12:59:18;13.20;99.90
18083;DHT22;9168;51.194;6.840;2023-04-24T13:01:46;13.70;99.90
18083;DHT22;9168;51.194;6.840;2023-04-24T13:04:13;13.80;99.90
18083;DHT22;9168;51.194;6.840;2023-04-24T13:06:39;13.60;99.90
18083;DHT22;9168;51.194;6.840;2023-04-24T13:09:06;13.50;99.90
18083;DHT22;9168;51.194;6.840;2023-04-24T13:11:35;13.30;99.90
18083;DHT22;9168;51.194;6.840;2023-04-24T13:14:02;13.20;99.90
18083;DHT22;9168;51.194;6.840;2023-04-24T13:16:29;13.00;99.90
18083;DHT22;9168;51.194;6.840;2023-04-24T13:18:57;12.90;99.90
18083;DHT22;9168;51.194;6.840;2023-04-24T13:21:24;12.80;99.90
18083;DHT22;9168;51.194;6.840;2023-04-24T13:23:51;12.80;99.90
18083;DHT22;9168;51.194;6.840;2023-04-24T13:26:18;12.70;99.90
18083;DHT22;9168;51.194;6.840;2023-04-24T13:28:45;12.60;99.90
18083;DHT22;9168;51.194;6.840;2023-04-24T13:31:12;12.60;99.90
18083;DHT22;9168;51.194;6.840;2023-04-24T13:33:39;12.50;99.90
18083;DHT22;9168;51.194;6.840;2023-04-24T13:36:08;12.40;99.90
18083;DHT22;9168;51.194;6.840;2023-04-24T13:38:35;12.60;99.90
18083;DHT22;9168;51.194;6.840;2023-04-24T13:41:02;12.90;99.90
18083;DHT22;9168;51.194;6.840;2023-04-24T13:43:29;13.30;99.90
18083;DHT22;9168;51.194;6.840;2023-04-24T13:45:56;13.40;99.90
18083;DHT22;9168;51.194;6.840;2023-04-24T13:48:24;13.30;99.90
18083;DHT22;9168;51.194;6.840;2023-04-24T13:50:51;13.10;99.90
18083;DHT22;9168;51.194;6.840;2023-04-24T13:53:19;13.10;99.90
18083;DHT22;9168;51.194;6.840;2023-04-24T13:55:52;13.10;99.90
18083;DHT22;9168;51.194;6.840;2023-04-24T13:58:19;13.00;99.90
18083;DHT22;9168;51.194;6.840;2023-04-24T14:00:46;12.80;99.90
18083;DHT22;9168;51.194;6.840;2023-04-24T14:03:13;12.70;99.90
18083;DHT22;9168;51.194;6.840;2023-04-24T14:05:40;12.60;99.90
18083;DHT22;9168;51.194;6.840;2023-04-24T14:08:07;12.50;99.90
18083;DHT22;9168;51.194;6.840;2023-04-24T14:10:35;12.40;99.90
18083;DHT22;9168;51.194;6.840;2023-04-24T14:13:02;12.40;99.90
18083;DHT22;9168;51.194;6.840;2023-04-24T14:15:29;12.30;99.90
18083;DHT22;9168;51.194;6.840;2023-04-24T14:17:56;12.20;99.90
18083;DHT22;9168;51.194;6.840;2023-04-24T14:20:23;12.20;99.90
18083;DHT22;9168;51.194;6.840;2023-04-24T14:22:50;12.30;99.90
18083;DHT22;9168;51.194;6.840;2023-04-24T14:25:17;12.40;99.90
18083;DHT22;9168;51.194;6.840;2023-04-24T14:27:45;12.50;99.90
18083;DHT22;9168;51.194;6.840;2023-04-24T14:30:13;12.60;99.90
18083;DHT22;9168;51.194;6.840;2023-04-24T14:32:41;12.70;99.90
18083;DHT22;9168;51.194;6.840;2023-04-24T14:35:08;12.60;99.90
18083;DHT22;9168;51.194;6.840;2023-04-24T14:37:35;12.60;99.90
18083;DHT22;9168;51.194;6.840;2023-04-24T14:40:02;12.50;99.90
18083;DHT22;9168;51.194;6.840;2023-04-24T14:42:29;12.60;99.90
18083;DHT22;9168;51.194;6.840;2023-04-24T14:44:58;12.70;99.90
18083;DHT22;9168;51.194;6.840;2023-04-24T14:47:25;12.70;99.90
18083;DHT22;9168;51.194;6.840;2023-04-24T14:49:52;12.90;99.90
18083;DHT22;9168;51.194;6.840;2023-04-24T14:52:19;13.10;99.90
18083;DHT22;9168;51.194;6.840;2023-04-24T14:54:45;13.70;99.90
18083;DHT22;9168;51.194;6.840;2023-04-24T14:57:12;14.30;99.90
18083;DHT22;9168;51.194;6.840;2023-04-24T14:59:39;14.40;99.90
18083;DHT22;9168;51.194;6.840;2023-04-24T15:02:07;14.40;99.90
18083;DHT22;9168;51.194;6.840;2023-04-24T15:04:34;14.40;99.90
18083;DHT22;9168;51.194;6.840;2023-04-24T15:07:01;14.40;99.90
18083;DHT22;9168;51.194;6.840;2023-04-24T15:09:28;14.30;99.90
18083;DHT22;9168;51.194;6.840;2023-04-24T15:11:57;14.50;99.90
18083;DHT22;9168;51.194;6.840;2023-04-24T15:14:24;14.80;99.90
18083;DHT22;9168;51.194;6.840;2023-04-24T15:16:51;15.10;99.90
18083;DHT22;9168;51.194;6.840;2023-04-24T15:19:19;15.30;99.90
18083;DHT22;9168;51.194;6.840;2023-04-24T15:21:46;15.40;99.90
18083;DHT22;9168;51.194;6.840;2023-04-24T15:24:13;15.30;99.90
18083;DHT22;9168;51.194;6.840;2023-04-24T15:26:40;15.00;99.90
18083;DHT22;9168;51.194;6.840;2023-04-24T15:29:07;14.80;99.90
18083;DHT22;9168;51.194;6.840;2023-04-24T15:31:34;14.60;99.90
18083;DHT22;9168;51.194;6.840;2023-04-24T15:34:05;14.50;99.90
18083;DHT22;9168;51.194;6.840;2023-04-24T15:36:33;14.30;99.90
18083;DHT22;9168;51.194;6.840;2023-04-24T15:39:00;14.10;99.90
18083;DHT22;9168;51.194;6.840;2023-04-24T15:41:28;13.90;99.90
18083;DHT22;9168;51.194;6.840;2023-04-24T15:43:55;13.80;99.90
18083;DHT22;9168;51.194;6.840;2023-04-24T15:46:21;13.70;99.90
18083;DHT22;9168;51.194;6.840;2023-04-24T15:48:48;13.60;99.90
18083;DHT22;9168;51.194;6.840;2023-04-24T15:51:15;13.50;99.90
18083;DHT22;9168;51.194;6.840;2023-04-24T15:53:43;13.60;99.90
18083;DHT22;9168;51.194;6.840;2023-04-24T15:56:11;13.70;99.90
18083;DHT22;9168;51.194;6.840;2023-04-24T15:58:39;13.80;99.90
18083;DHT22;9168;51.194;6.840;2023-04-24T16:01:06;13.80;99.90